Terminal Aerodrome Forecast
Issued by NWS

Home | Current Version | Previous Version | Text Only | Print | Product List | Glossary On
Versions: 1 2 3 4 5 6 7 8 9 10 11 12 13 14 15 16 17
000
FTUS43 KDDC 240520
TAFGCK
TAF
KGCK 240520Z 2406/2506 32011KT P6SM SKC WS020/34045KT
     FM241200 32014G22KT P6SM SKC
     FM241500 34022G30KT P6SM SKC
     FM250000 34013KT P6SM SKC=

USA.gov is the U.S. government's official web portal to all federal, state and local government web resources and services.